sensor_id;sensor_type;location;lat;lon;timestamp;temperature;humidity
66610;DHT22;53468;48.276;14.416;2023-07-20T07:35:45;22.90;99.90
66610;DHT22;53468;48.276;14.416;2023-07-20T07:40:48;23.20;99.90
66610;DHT22;53468;48.276;14.416;2023-07-20T07:46:02;23.80;99.90
66610;DHT22;53468;48.276;14.416;2023-07-20T07:51:11;24.50;99.90
66610;DHT22;53468;48.276;14.416;2023-07-20T07:56:37;24.90;99.90
66610;DHT22;53468;48.276;14.416;2023-07-20T08:01:41;25.30;99.90
66610;DHT22;53468;48.276;14.416;2023-07-20T08:06:47;25.40;99.90
66610;DHT22;53468;48.276;14.416;2023-07-20T08:11:49;25.60;99.90
66610;DHT22;53468;48.276;14.416;2023-07-20T08:16:52;25.40;99.90
66610;DHT22;53468;48.276;14.416;2023-07-20T08:21:56;24.90;99.90
66610;DHT22;53468;48.276;14.416;2023-07-20T08:26:59;24.50;99.90
66610;DHT22;53468;48.276;14.416;2023-07-20T08:32:01;23.90;99.90
66610;DHT22;53468;48.276;14.416;2023-07-20T08:37:05;24.40;99.90
66610;DHT22;53468;48.276;14.416;2023-07-20T08:42:17;25.20;99.90
66610;DHT22;53468;48.276;14.416;2023-07-20T08:47:27;25.60;99.90
66610;DHT22;53468;48.276;14.416;2023-07-20T08:52:48;25.70;99.90
66610;DHT22;53468;48.276;14.416;2023-07-20T08:57:59;25.60;99.90
66610;DHT22;53468;48.276;14.416;2023-07-20T09:03:12;25.60;99.90
66610;DHT22;53468;48.276;14.416;2023-07-20T09:08:23;25.80;99.20
66610;DHT22;53468;48.276;14.416;2023-07-20T09:13:27;26.00;99.30
66610;DHT22;53468;48.276;14.416;2023-07-20T09:18:52;25.90;99.90
66610;DHT22;53468;48.276;14.416;2023-07-20T09:24:18;25.80;99.10
66610;DHT22;53468;48.276;14.416;2023-07-20T09:29:25;25.50;99.60
66610;DHT22;53468;48.276;14.416;2023-07-20T09:34:44;25.70;99.40
66610;DHT22;53468;48.276;14.416;2023-07-20T09:39:54;25.60;97.50
66610;DHT22;53468;48.276;14.416;2023-07-20T09:44:59;25.50;95.40
66610;DHT22;53468;48.276;14.416;2023-07-20T09:50:17;25.90;95.30
66610;DHT22;53468;48.276;14.416;2023-07-20T09:55:59;26.30;96.40
66610;DHT22;53468;48.276;14.416;2023-07-20T10:01:14;25.50;94.50
66610;DHT22;53468;48.276;14.416;2023-07-20T10:06:47;25.40;93.70
66610;DHT22;53468;48.276;14.416;2023-07-20T10:12:00;25.40;96.30
66610;DHT22;53468;48.276;14.416;2023-07-20T10:17:32;25.30;94.80
66610;DHT22;53468;48.276;14.416;2023-07-20T10:29:19;25.50;96.10
66610;DHT22;53468;48.276;14.416;2023-07-20T10:34:24;25.70;94.40
66610;DHT22;53468;48.276;14.416;2023-07-20T10:39:32;25.80;94.50
66610;DHT22;53468;48.276;14.416;2023-07-20T10:44:37;26.10;92.20
66610;DHT22;53468;48.276;14.416;2023-07-20T10:49:59;26.30;93.20
66610;DHT22;53468;48.276;14.416;2023-07-20T10:55:18;26.20;95.70
66610;DHT22;53468;48.276;14.416;2023-07-20T11:01:03;26.60;94.80
66610;DHT22;53468;48.276;14.416;2023-07-20T11:06:33;26.60;92.90
66610;DHT22;53468;48.276;14.416;2023-07-20T11:11:44;26.50;90.80
66610;DHT22;53468;48.276;14.416;2023-07-20T11:16:55;26.40;93.10
66610;DHT22;53468;48.276;14.416;2023-07-20T11:22:05;26.40;90.90
66610;DHT22;53468;48.276;14.416;2023-07-20T11:27:41;26.70;93.80
66610;DHT22;53468;48.276;14.416;2023-07-20T11:33:21;26.70;91.00
66610;DHT22;53468;48.276;14.416;2023-07-20T11:38:28;26.70;91.50
66610;DHT22;53468;48.276;14.416;2023-07-20T11:43:35;27.30;92.20
66610;DHT22;53468;48.276;14.416;2023-07-20T11:48:46;26.70;87.50
66610;DHT22;53468;48.276;14.416;2023-07-20T11:53:52;26.60;87.50
66610;DHT22;53468;48.276;14.416;2023-07-20T11:59:00;26.70;90.20
66610;DHT22;53468;48.276;14.416;2023-07-20T12:04:07;26.70;91.40
66610;DHT22;53468;48.276;14.416;2023-07-20T12:09:17;26.70;89.80
66610;DHT22;53468;48.276;14.416;2023-07-20T12:14:25;26.30;89.10
66610;DHT22;53468;48.276;14.416;2023-07-20T12:19:32;26.20;88.10
66610;DHT22;53468;48.276;14.416;2023-07-20T12:24:36;26.70;91.60
66610;DHT22;53468;48.276;14.416;2023-07-20T12:29:43;27.10;90.70
66610;DHT22;53468;48.276;14.416;2023-07-20T12:34:48;26.90;87.70
66610;DHT22;53468;48.276;14.416;2023-07-20T12:39:51;26.40;82.40
66610;DHT22;53468;48.276;14.416;2023-07-20T12:44:59;26.70;86.40
66610;DHT22;53468;48.276;14.416;2023-07-20T12:50:07;26.60;81.60
66610;DHT22;53468;48.276;14.416;2023-07-20T12:55:15;26.90;87.80
66610;DHT22;53468;48.276;14.416;2023-07-20T13:00:18;27.10;87.50
66610;DHT22;53468;48.276;14.416;2023-07-20T13:05:33;27.80;86.50
66610;DHT22;53468;48.276;14.416;2023-07-20T13:10:37;27.30;79.20
66610;DHT22;53468;48.276;14.416;2023-07-20T13:15:48;27.00;82.80
66610;DHT22;53468;48.276;14.416;2023-07-20T13:21:00;27.40;83.50
66610;DHT22;53468;48.276;14.416;2023-07-20T13:26:15;27.30;79.00
66610;DHT22;53468;48.276;14.416;2023-07-20T13:31:22;27.20;78.30
66610;DHT22;53468;48.276;14.416;2023-07-20T13:36:26;27.10;81.30
66610;DHT22;53468;48.276;14.416;2023-07-20T13:41:35;27.20;82.50
66610;DHT22;53468;48.276;14.416;2023-07-20T13:46:41;27.30;80.80
66610;DHT22;53468;48.276;14.416;2023-07-20T13:52:00;27.30;81.50
66610;DHT22;53468;48.276;14.416;2023-07-20T13:57:06;26.90;79.70
66610;DHT22;53468;48.276;14.416;2023-07-20T14:02:14;26.80;79.80
66610;DHT22;53468;48.276;14.416;2023-07-20T14:07:18;26.60;81.20
66610;DHT22;53468;48.276;14.416;2023-07-20T14:12:22;26.60;81.90
66610;DHT22;53468;48.276;14.416;2023-07-20T14:17:31;26.10;80.80
66610;DHT22;53468;48.276;14.416;2023-07-20T14:22:45;26.30;83.00
66610;DHT22;53468;48.276;14.416;2023-07-20T14:27:49;26.60;81.40
66610;DHT22;53468;48.276;14.416;2023-07-20T14:32:55;26.10;80.50
66610;DHT22;53468;48.276;14.416;2023-07-20T14:38:04;26.40;81.40
66610;DHT22;53468;48.276;14.416;2023-07-20T14:43:08;26.10;81.80
66610;DHT22;53468;48.276;14.416;2023-07-20T14:48:15;26.20;80.00
66610;DHT22;53468;48.276;14.416;2023-07-20T14:53:21;26.20;79.10
66610;DHT22;53468;48.276;14.416;2023-07-20T14:58:26;26.60;79.30
66610;DHT22;53468;48.276;14.416;2023-07-20T15:03:33;26.60;79.40
66610;DHT22;53468;48.276;14.416;2023-07-20T15:08:38;26.80;80.80
66610;DHT22;53468;48.276;14.416;2023-07-20T15:13:41;27.00;79.80
66610;DHT22;53468;48.276;14.416;2023-07-20T15:18:46;26.40;82.10
66610;DHT22;53468;48.276;14.416;2023-07-20T15:23:53;26.40;78.90
66610;DHT22;53468;48.276;14.416;2023-07-20T15:28:58;26.50;76.10
66610;DHT22;53468;48.276;14.416;2023-07-20T15:34:06;26.00;80.30
66610;DHT22;53468;48.276;14.416;2023-07-20T15:39:13;26.20;80.20
66610;DHT22;53468;48.276;14.416;2023-07-20T15:44:21;26.20;81.90
66610;DHT22;53468;48.276;14.416;2023-07-20T15:49:27;26.20;77.70
66610;DHT22;53468;48.276;14.416;2023-07-20T15:54:36;26.20;76.30
66610;DHT22;53468;48.276;14.416;2023-07-20T15:59:45;25.90;78.90
66610;DHT22;53468;48.276;14.416;2023-07-20T16:04:52;25.90;76.40
66610;DHT22;53468;48.276;14.416;2023-07-20T16:09:58;26.40;76.90
66610;DHT22;53468;48.276;14.416;2023-07-20T16:15:04;26.30;76.20
66610;DHT22;53468;48.276;14.416;2023-07-20T16:20:10;25.90;79.90
66610;DHT22;53468;48.276;14.416;2023-07-20T16:25:17;26.10;77.00
66610;DHT22;53468;48.276;14.416;2023-07-20T16:30:20;26.10;77.80
66610;DHT22;53468;48.276;14.416;2023-07-20T16:35:25;26.00;77.70
66610;DHT22;53468;48.276;14.416;2023-07-20T16:40:32;26.10;77.50
66610;DHT22;53468;48.276;14.416;2023-07-20T16:45:37;26.00;77.50
66610;DHT22;53468;48.276;14.416;2023-07-20T16:50:48;25.80;78.40
66610;DHT22;53468;48.276;14.416;2023-07-20T16:56:05;25.70;81.30
66610;DHT22;53468;48.276;14.416;2023-07-20T17:01:10;25.70;77.50
66610;DHT22;53468;48.276;14.416;2023-07-20T17:06:21;25.50;80.10
66610;DHT22;53468;48.276;14.416;2023-07-20T17:11:33;25.30;80.90
66610;DHT22;53468;48.276;14.416;2023-07-20T17:16:38;25.30;79.80
66610;DHT22;53468;48.276;14.416;2023-07-20T17:21:46;25.10;82.20
66610;DHT22;53468;48.276;14.416;2023-07-20T17:26:57;24.90;80.80
66610;DHT22;53468;48.276;14.416;2023-07-20T17:32:03;24.90;79.20
66610;DHT22;53468;48.276;14.416;2023-07-20T17:37:09;24.70;82.40
66610;DHT22;53468;48.276;14.416;2023-07-20T17:42:21;24.60;79.30
66610;DHT22;53468;48.276;14.416;2023-07-20T17:47:28;24.60;78.30
66610;DHT22;53468;48.276;14.416;2023-07-20T17:52:35;24.40;81.50
66610;DHT22;53468;48.276;14.416;2023-07-20T17:57:48;24.20;81.30
66610;DHT22;53468;48.276;14.416;2023-07-20T18:03:02;24.00;81.80
66610;DHT22;53468;48.276;14.416;2023-07-20T18:08:29;23.90;82.80
66610;DHT22;53468;48.276;14.416;2023-07-20T18:13:42;24.00;81.10
66610;DHT22;53468;48.276;14.416;2023-07-20T18:18:50;23.80;82.50
66610;DHT22;53468;48.276;14.416;2023-07-20T18:23:57;23.50;83.60
66610;DHT22;53468;48.276;14.416;2023-07-20T18:29:29;23.50;88.40
66610;DHT22;53468;48.276;14.416;2023-07-20T18:34:33;23.00;87.80
66610;DHT22;53468;48.276;14.416;2023-07-20T18:39:40;22.70;89.80
66610;DHT22;53468;48.276;14.416;2023-07-20T18:44:45;22.30;91.90
66610;DHT22;53468;48.276;14.416;2023-07-20T18:49:48;22.10;91.20
66610;DHT22;53468;48.276;14.416;2023-07-20T18:54:55;21.80;93.50
66610;DHT22;53468;48.276;14.416;2023-07-20T19:00:00;21.50;92.60
66610;DHT22;53468;48.276;14.416;2023-07-20T19:05:03;21.40;93.50
66610;DHT22;53468;48.276;14.416;2023-07-20T19:10:07;21.10;96.10
66610;DHT22;53468;48.276;14.416;2023-07-20T19:15:14;20.90;98.20
66610;DHT22;53468;48.276;14.416;2023-07-20T19:20:19;20.70;98.10
66610;DHT22;53468;48.276;14.416;2023-07-20T19:25:23;20.50;98.20
66610;DHT22;53468;48.276;14.416;2023-07-20T19:30:34;20.50;99.90
66610;DHT22;53468;48.276;14.416;2023-07-20T19:35:52;20.30;99.90
66610;DHT22;53468;48.276;14.416;2023-07-20T19:41:05;20.20;99.90
66610;DHT22;53468;48.276;14.416;2023-07-20T19:46:09;19.90;99.90
66610;DHT22;53468;48.276;14.416;2023-07-20T19:51:44;19.80;99.90
66610;DHT22;53468;48.276;14.416;2023-07-20T19:57:07;19.60;99.90
66610;DHT22;53468;48.276;14.416;2023-07-20T20:20:46;19.00;99.90
66610;DHT22;53468;48.276;14.416;2023-07-20T20:26:27;18.80;99.90
66610;DHT22;53468;48.276;14.416;2023-07-20T20:32:24;18.80;99.90
66610;DHT22;53468;48.276;14.416;2023-07-20T20:38:04;18.60;99.90
66610;DHT22;53468;48.276;14.416;2023-07-20T20:43:54;18.50;99.90
66610;DHT22;53468;48.276;14.416;2023-07-20T20:49:43;18.30;99.90
66610;DHT22;53468;48.276;14.416;2023-07-20T20:56:04;18.40;99.90
66610;DHT22;53468;48.276;14.416;2023-07-20T21:01:26;18.20;99.90
66610;DHT22;53468;48.276;14.416;2023-07-20T21:07:20;18.10;99.90
66610;DHT22;53468;48.276;14.416;2023-07-20T21:13:05;18.10;99.90
66610;DHT22;53468;48.276;14.416;2023-07-20T21:24:50;17.90;99.90
66610;DHT22;53468;48.276;14.416;2023-07-20T21:43:15;17.50;99.90
66610;DHT22;53468;48.276;14.416;2023-07-20T21:48:35;17.60;99.90
66610;DHT22;53468;48.276;14.416;2023-07-20T21:54:14;17.50;99.90
66610;DHT22;53468;48.276;14.416;2023-07-20T22:00:21;17.30;99.90
66610;DHT22;53468;48.276;14.416;2023-07-20T22:06:16;17.20;99.90
66610;DHT22;53468;48.276;14.416;2023-07-20T22:12:14;17.10;99.90
66610;DHT22;53468;48.276;14.416;2023-07-20T22:18:11;17.00;99.90
66610;DHT22;53468;48.276;14.416;2023-07-20T22:23:35;16.90;99.90
66610;DHT22;53468;48.276;14.416;2023-07-20T22:29:24;16.80;99.90
66610;DHT22;53468;48.276;14.416;2023-07-20T22:41:33;16.60;99.90
66610;DHT22;53468;48.276;14.416;2023-07-20T22:47:02;16.60;99.90
66610;DHT22;53468;48.276;14.416;2023-07-20T22:52:42;16.50;99.90
66610;DHT22;53468;48.276;14.416;2023-07-20T22:58:50;16.50;99.90
66610;DHT22;53468;48.276;14.416;2023-07-20T23:04:21;16.50;99.90
66610;DHT22;53468;48.276;14.416;2023-07-20T23:10:15;16.50;99.90
66610;DHT22;53468;48.276;14.416;2023-07-20T23:28:01;16.40;99.90
66610;DHT22;53468;48.276;14.416;2023-07-20T23:34:12;16.20;99.90
66610;DHT22;53468;48.276;14.416;2023-07-20T23:39:55;16.40;99.90
66610;DHT22;53468;48.276;14.416;2023-07-20T23:46:21;16.50;99.90
66610;DHT22;53468;48.276;14.416;2023-07-20T23:52:09;16.40;99.90
66610;DHT22;53468;48.276;14.416;2023-07-20T23:57:51;16.30;99.90
